Test XHTML 1.0 Strict Page for WU-History Testing
Station Historical Data
 
Daily Summary for November 23, 2014 Units:  Both    English   Metric
« Previous Day
Next Day »
Daily Weekly Monthly Yearly Custom
  Current: High: Low: Average:
Temperature: 43.7 °F /  6.5 °C 45.9 °F /  7.7 °C 43.7 °F /  6.5 °C 45 °F /  7.2 °C
Dew Point: 43.7 °F /  6.5 °C 45.9 °F /  7.7 °C 43.7 °F /  6.5 °C 45 °F /  7.2 °C
Humidity: 100% 100% 100% 100%
Wind Speed: 0.0mph /  0km/h 1.2mph /  1.9km/h - 0mph /  0km/h
Wind Gust: 0.0mph /  0km/h 1.2mph /  1.9km/h - -
WindCalm - - WSW
Pressure: 30.05 in /  1017.5 hPa 30.05 in /  1017.5 hPa 30.00 in /  1015.8 hPa -
Precipitation: 0.13 in /  3.3 mm      
Historical Graphs
 
 
Weather-Above Climate History
Untitled
Tabular Data for November 23, 2014
Time Temperature Dew Point Pressure Wind Wind Speed Wind Gust Humidity Rainfall Rate (Hourly)
00:00 44.2 °F /  6.8 °C 44.2 °F /  6.8 °C 30.01in /  1016.1hPa Calm     100% 0.00in /  0cm
00:05 44.4 °F /  6.9 °C 44.4 °F /  6.9 °C 30.01in /  1016.1hPa Calm     100% 0.00in /  0cm
00:10 44.4 °F /  6.9 °C 44.4 °F /  6.9 °C 30.01in /  1016.1hPa Calm     100% 0.00in /  0cm
00:15 44.2 °F /  6.8 °C 44.2 °F /  6.8 °C 30.01in /  1016.1hPa Calm     100% 0.00in /  0cm
00:20 44.1 °F /  6.7 °C 44.1 °F /  6.7 °C 30.02in /  1016.5hPa Calm     100% 0.00in /  0cm
00:25 44.2 °F /  6.8 °C 44.2 °F /  6.8 °C 30.02in /  1016.5hPa Calm     100% 0.00in /  0cm
00:30 44.2 °F /  6.8 °C 44.2 °F /  6.8 °C 30.02in /  1016.5hPa Calm     100% 0.00in /  0cm
00:35 44.4 °F /  6.9 °C 44.4 °F /  6.9 °C 30.03in /  1016.8hPa Calm     100% 0.00in /  0cm
00:40 44.6 °F /  7 °C 44.6 °F /  7 °C 30.03in /  1016.8hPa Calm     100% 0.00in /  0cm
00:45 44.6 °F /  7 °C 44.6 °F /  7 °C 30.03in /  1016.8hPa Calm     100% 0.00in /  0cm
00:50 45.3 °F /  7.4 °C 45.3 °F /  7.4 °C 30.03in /  1016.8hPa Calm     100% 0.00in /  0cm
00:55 45.5 °F /  7.5 °C 45.5 °F /  7.5 °C 30.03in /  1016.8hPa Calm     100% 0.00in /  0cm
01:00 45.9 °F /  7.7 °C 45.9 °F /  7.7 °C 30.03in /  1016.8hPa Calm     100% 0.00in /  0cm
01:05 45.9 °F /  7.7 °C 45.9 °F /  7.7 °C 30.03in /  1016.8hPa Calm     100% 0.00in /  0cm
01:10 45.9 °F /  7.7 °C 45.9 °F /  7.7 °C 30.02in /  1016.5hPa Calm     100% 0.00in /  0cm
01:15 45.7 °F /  7.6 °C 45.7 °F /  7.6 °C 30.02in /  1016.5hPa Calm     100% 0.00in /  0cm
01:20 45.9 °F /  7.7 °C 45.9 °F /  7.7 °C 30.02in /  1016.5hPa Calm     100% 0.00in /  0cm
01:25 45.5 °F /  7.5 °C 45.5 °F /  7.5 °C 30.02in /  1016.5hPa Calm     100% 0.00in /  0cm
01:30 45.3 °F /  7.4 °C 45.3 °F /  7.4 °C 30.02in /  1016.5hPa Calm     100% 0.00in /  0cm
01:35 45.3 °F /  7.4 °C 45.3 °F /  7.4 °C 30.01in /  1016.1hPa Calm     100% 0.00in /  0cm
01:40 45.1 °F /  7.3 °C 45.1 °F /  7.3 °C 30.01in /  1016.1hPa Calm     100% 0.00in /  0cm
01:45 45.0 °F /  7.2 °C 45.0 °F /  7.2 °C 30.00in /  1015.8hPa Calm     100% 0.00in /  0cm
01:50 45.0 °F /  7.2 °C 45.0 °F /  7.2 °C 30.00in /  1015.8hPa Calm     100% 0.00in /  0cm
01:55 45.1 °F /  7.3 °C 45.1 °F /  7.3 °C 30.00in /  1015.8hPa Calm     100% 0.00in /  0cm
02:00 45.3 °F /  7.4 °C 45.3 °F /  7.4 °C 30.01in /  1016.1hPa Calm     100% 0.00in /  0cm
02:05 45.3 °F /  7.4 °C 45.3 °F /  7.4 °C 30.01in /  1016.1hPa Calm     100% 0.00in /  0cm
02:10 45.3 °F /  7.4 °C 45.3 °F /  7.4 °C 30.02in /  1016.5hPa Calm     100% 0.00in /  0cm
02:15 45.1 °F /  7.3 °C 45.1 °F /  7.3 °C 30.02in /  1016.5hPa Calm     100% 0.00in /  0cm
02:20 45.3 °F /  7.4 °C 45.3 °F /  7.4 °C 30.02in /  1016.5hPa Calm     100% 0.00in /  0cm
02:25 45.1 °F /  7.3 °C 45.1 °F /  7.3 °C 30.02in /  1016.5hPa Calm     100% 0.00in /  0cm
02:30 45.1 °F /  7.3 °C 45.1 °F /  7.3 °C 30.03in /  1016.8hPa Calm     100% 0.00in /  0cm
02:35 45.1 °F /  7.3 °C 45.1 °F /  7.3 °C 30.03in /  1016.8hPa Calm     100% 0.01in /  0.25cm
02:40 45.3 °F /  7.4 °C 45.3 °F /  7.4 °C 30.02in /  1016.5hPa Calm     100% 0.01in /  0.25cm
02:45 45.5 °F /  7.5 °C 45.5 °F /  7.5 °C 30.02in /  1016.5hPa Calm     100% 0.01in /  0.25cm
02:50 45.5 °F /  7.5 °C 45.5 °F /  7.5 °C 30.02in /  1016.5hPa Calm     100% 0.01in /  0.25cm
02:55 45.5 °F /  7.5 °C 45.5 °F /  7.5 °C 30.02in /  1016.5hPa WSW 1.2mph /  1.9km/h   100% 0.01in /  0.25cm
03:00 45.5 °F /  7.5 °C 45.5 °F /  7.5 °C 30.02in /  1016.5hPa Calm   0.3mph /  0.5km/h 100% 0.01in /  0.25cm
03:05 45.5 °F /  7.5 °C 45.5 °F /  7.5 °C 30.03in /  1016.8hPa SW 0.9mph /  1.4km/h 0.9mph /  1.4km/h 100% 0.01in /  0.25cm
03:10 45.5 °F /  7.5 °C 45.5 °F /  7.5 °C 30.02in /  1016.5hPa Calm     100% 0.01in /  0.25cm
03:15 45.5 °F /  7.5 °C 45.5 °F /  7.5 °C 30.02in /  1016.5hPa Calm     100% 0.01in /  0.25cm
03:20 45.5 °F /  7.5 °C 45.5 °F /  7.5 °C 30.03in /  1016.8hPa WSW 1.2mph /  1.9km/h 1.2mph /  1.9km/h 100% 0.01in /  0.25cm
03:25 45.5 °F /  7.5 °C 45.5 °F /  7.5 °C 30.01in /  1016.1hPa Calm     100% 0.01in /  0.25cm
03:30 45.5 °F /  7.5 °C 45.5 °F /  7.5 °C 30.02in /  1016.5hPa Calm     100% 0.01in /  0.25cm
03:35 45.5 °F /  7.5 °C 45.5 °F /  7.5 °C 30.02in /  1016.5hPa Calm     100% 0.00in /  0cm
03:40 45.7 °F /  7.6 °C 45.7 °F /  7.6 °C 30.02in /  1016.5hPa Calm     100% 0.00in /  0cm
03:45 45.7 °F /  7.6 °C 45.7 °F /  7.6 °C 30.01in /  1016.1hPa Calm     100% 0.00in /  0cm
03:50 45.5 °F /  7.5 °C 45.5 °F /  7.5 °C 30.03in /  1016.8hPa Calm     100% 0.00in /  0cm
03:55 45.5 °F /  7.5 °C 45.5 °F /  7.5 °C 30.03in /  1016.8hPa Calm     100% 0.00in /  0cm
04:00 45.5 °F /  7.5 °C 45.5 °F /  7.5 °C 30.02in /  1016.5hPa Calm     100% 0.00in /  0cm
04:05 45.5 °F /  7.5 °C 45.5 °F /  7.5 °C 30.02in /  1016.5hPa Calm     100% 0.01in /  0.25cm
04:10 45.3 °F /  7.4 °C 45.3 °F /  7.4 °C 30.02in /  1016.5hPa Calm     100% 0.02in /  0.51cm
04:15 45.3 °F /  7.4 °C 45.3 °F /  7.4 °C 30.03in /  1016.8hPa Calm     100% 0.02in /  0.51cm
04:20 45.3 °F /  7.4 °C 45.3 °F /  7.4 °C 30.03in /  1016.8hPa Calm     100% 0.02in /  0.51cm
04:25 45.5 °F /  7.5 °C 45.5 °F /  7.5 °C 30.03in /  1016.8hPa Calm     100% 0.02in /  0.51cm
04:30 45.3 °F /  7.4 °C 45.3 °F /  7.4 °C 30.02in /  1016.5hPa Calm     100% 0.03in /  0.76cm
04:35 45.3 °F /  7.4 °C 45.3 °F /  7.4 °C 30.03in /  1016.8hPa Calm     100% 0.04in /  1.02cm
04:40 45.3 °F /  7.4 °C 45.3 °F /  7.4 °C 30.03in /  1016.8hPa Calm     100% 0.05in /  1.27cm
04:45 45.5 °F /  7.5 °C 45.5 °F /  7.5 °C 30.03in /  1016.8hPa Calm     100% 0.06in /  1.52cm
04:50 45.5 °F /  7.5 °C 45.5 °F /  7.5 °C 30.03in /  1016.8hPa Calm     100% 0.07in /  1.78cm
04:55 45.5 °F /  7.5 °C 45.5 °F /  7.5 °C 30.03in /  1016.8hPa Calm     100% 0.08in /  2.03cm
05:00 45.7 °F /  7.6 °C 45.7 °F /  7.6 °C 30.03in /  1016.8hPa Calm     100% 0.09in /  2.29cm
05:05 45.7 °F /  7.6 °C 45.7 °F /  7.6 °C 30.04in /  1017.2hPa Calm     100% 0.08in /  2.03cm
05:10 45.7 °F /  7.6 °C 45.7 °F /  7.6 °C 30.03in /  1016.8hPa Calm     100% 0.07in /  1.78cm
05:15 45.7 °F /  7.6 °C 45.7 °F /  7.6 °C 30.04in /  1017.2hPa Calm     100% 0.07in /  1.78cm
05:20 45.5 °F /  7.5 °C 45.5 °F /  7.5 °C 30.03in /  1016.8hPa Calm     100% 0.08in /  2.03cm
05:25 45.5 °F /  7.5 °C 45.5 °F /  7.5 °C 30.03in /  1016.8hPa Calm     100% 0.08in /  2.03cm
05:30 45.3 °F /  7.4 °C 45.3 °F /  7.4 °C 30.03in /  1016.8hPa Calm     100% 0.07in /  1.78cm
05:35 45.3 °F /  7.4 °C 45.3 °F /  7.4 °C 30.03in /  1016.8hPa Calm     100% 0.06in /  1.52cm
05:40 45.3 °F /  7.4 °C 45.3 °F /  7.4 °C 30.03in /  1016.8hPa Calm     100% 0.06in /  1.52cm
05:45 45.0 °F /  7.2 °C 45.0 °F /  7.2 °C 30.03in /  1016.8hPa Calm     100% 0.04in /  1.02cm
05:50 45.0 °F /  7.2 °C 45.0 °F /  7.2 °C 30.03in /  1016.8hPa Calm     100% 0.03in /  0.76cm
05:55 44.8 °F /  7.1 °C 44.8 °F /  7.1 °C 30.03in /  1016.8hPa Calm     100% 0.03in /  0.76cm
06:00 44.6 °F /  7 °C 44.6 °F /  7 °C 30.03in /  1016.8hPa Calm     100% 0.02in /  0.51cm
06:05 44.6 °F /  7 °C 44.6 °F /  7 °C 30.03in /  1016.8hPa Calm     100% 0.02in /  0.51cm
06:10 44.4 °F /  6.9 °C 44.4 °F /  6.9 °C 30.03in /  1016.8hPa Calm     100% 0.02in /  0.51cm
06:15 44.4 °F /  6.9 °C 44.4 °F /  6.9 °C 30.03in /  1016.8hPa Calm     100% 0.02in /  0.51cm
06:20 44.4 °F /  6.9 °C 44.4 °F /  6.9 °C 30.03in /  1016.8hPa Calm     100% 0.01in /  0.25cm
06:25 44.4 °F /  6.9 °C 44.4 °F /  6.9 °C 30.03in /  1016.8hPa Calm     100% 0.01in /  0.25cm
06:30 44.4 °F /  6.9 °C 44.4 °F /  6.9 °C 30.03in /  1016.8hPa Calm     100% 0.01in /  0.25cm
06:35 44.4 °F /  6.9 °C 44.4 °F /  6.9 °C 30.03in /  1016.8hPa Calm     100% 0.01in /  0.25cm
06:40 44.4 °F /  6.9 °C 44.4 °F /  6.9 °C 30.03in /  1016.8hPa Calm     100% 0.02in /  0.51cm
06:45 44.4 °F /  6.9 °C 44.4 °F /  6.9 °C 30.03in /  1016.8hPa Calm     100% 0.02in /  0.51cm
06:50 44.4 °F /  6.9 °C 44.4 °F /  6.9 °C 30.03in /  1016.8hPa Calm     100% 0.02in /  0.51cm
06:55 44.4 °F /  6.9 °C 44.4 °F /  6.9 °C 30.04in /  1017.2hPa Calm     100% 0.01in /  0.25cm
07:00 44.4 °F /  6.9 °C 44.4 °F /  6.9 °C 30.04in /  1017.2hPa Calm     100% 0.01in /  0.25cm
07:05 44.2 °F /  6.8 °C 44.2 °F /  6.8 °C 30.04in /  1017.2hPa Calm     100% 0.02in /  0.51cm
07:10 44.4 °F /  6.9 °C 44.4 °F /  6.9 °C 30.05in /  1017.5hPa Calm     100% 0.02in /  0.51cm
07:15 44.2 °F /  6.8 °C 44.2 °F /  6.8 °C 30.05in /  1017.5hPa Calm     100% 0.02in /  0.51cm
07:20 44.2 °F /  6.8 °C 44.2 °F /  6.8 °C 30.05in /  1017.5hPa Calm     100% 0.02in /  0.51cm
07:25 44.2 °F /  6.8 °C 44.2 °F /  6.8 °C 30.04in /  1017.2hPa Calm     100% 0.02in /  0.51cm
07:30 44.1 °F /  6.7 °C 44.1 °F /  6.7 °C 30.05in /  1017.5hPa Calm     100% 0.02in /  0.51cm
07:35 44.1 °F /  6.7 °C 44.1 °F /  6.7 °C 30.04in /  1017.2hPa Calm     100% 0.02in /  0.51cm
07:40 44.1 °F /  6.7 °C 44.1 °F /  6.7 °C 30.04in /  1017.2hPa Calm     100% 0.01in /  0.25cm
07:45 44.1 °F /  6.7 °C 44.1 °F /  6.7 °C 30.05in /  1017.5hPa Calm     100% 0.01in /  0.25cm
07:50 44.1 °F /  6.7 °C 44.1 °F /  6.7 °C 30.05in /  1017.5hPa Calm     100% 0.01in /  0.25cm
07:55 44.1 °F /  6.7 °C 44.1 °F /  6.7 °C 30.05in /  1017.5hPa Calm     100% 0.01in /  0.25cm
08:00 44.1 °F /  6.7 °C 44.1 °F /  6.7 °C 30.05in /  1017.5hPa Calm     100% 0.01in /  0.25cm
08:05 44.1 °F /  6.7 °C 44.1 °F /  6.7 °C 30.05in /  1017.5hPa Calm     100% 0.00in /  0cm
08:10 43.9 °F /  6.6 °C 43.9 °F /  6.6 °C 30.05in /  1017.5hPa Calm     100% 0.00in /  0cm
08:15 43.7 °F /  6.5 °C 43.7 °F /  6.5 °C 30.05in /  1017.5hPa Calm     100% 0.00in /  0cm
Wether-Above
Compliments of Weather Underground
Welcome to Weather-Above
Cheddleton weather station supplies various organisations with data from our weather station one of them is the weather Underground this information displayed here is coming from the weather Underground server 

If any information is used please acknowledge the source to www weather-above.com or weather Underground